Waterford, Connecticut
Current Conditions -  °F | °C
As of 11:56 PM on Friday 28 Nov 2014 (Local Time) from KGON Reporting Station
Clear Clear  
Wind Chill: 17°   Ceiling: Unl
Heat Index: 25°   Visibility: 8mi
Dew Point: 14°   Wind: 7mph
Humidity: 63%   Direction: 310°NW
Pressure: 30.26"   Gusts: NA
Location:  41.33°N, 72.12°W
Report Text: KGON 290456Z 31006KT 8SM CLR M04/M10 A3026 RMK AO2 SLP245 T10391100 400331039
Loading
Personal Weather Stations






























Interactive Weather Map New forecast layout! Learn more

10-Day Weather Forecast

Advertisements
Track Severe Weather on mobile